Terminal Aerodrome Forecast
Issued by NWS Charleston, WV

Current Version | Previous Version | Text Only | Print | Product List | Glossary Off
Versions: 1 2 3 4 5 6 7 8 9 10 11 12 13 14 15 16 17 18 19 20 21 22 23 24 25

000
FTUS41 KRLX 280548
TAFCRW
TAF
KCRW 280548Z 2806/2906 00000KT 6SM BR FEW001 FEW120
      TEMPO 2808/2811 4SM BR
     FM281100 00000KT P6SM BKN015
     FM281400 00000KT P6SM BKN025
     FM281600 00000KT P6SM BKN050
     FM281800 00000KT P6SM SCT050
     FM281900 00000KT P6SM VCTS BKN050CB
     FM290100 00000KT P6SM BKN050=

USA.gov is the U.S. government's official web portal to all federal, state and local government web resources and services.